createdAt,value
2018-12-11T00:00:00.680Z,3.22
2018-12-11T00:01:05.739Z,3.60
2018-12-11T00:02:13.053Z,3.00
2018-12-11T00:03:19.905Z,3.62
2018-12-11T00:04:24.802Z,4.15
2018-12-11T00:05:29.251Z,3.12
2018-12-11T00:06:34.099Z,3.90
2018-12-11T00:07:38.722Z,3.45
2018-12-11T00:08:43.838Z,3.27
2018-12-11T00:09:48.512Z,3.87
2018-12-11T00:10:53.507Z,3.65
2018-12-11T00:11:58.239Z,3.17
2018-12-11T00:13:03.188Z,4.15
2018-12-11T00:14:08.022Z,2.62
2018-12-11T00:15:12.944Z,4.03
2018-12-11T00:16:18.013Z,3.20
2018-12-11T00:17:24.080Z,3.60
2018-12-11T00:18:28.861Z,3.50
2018-12-11T00:19:33.377Z,3.60
2018-12-11T00:20:38.549Z,3.77
2018-12-11T00:21:44.049Z,3.10
2018-12-11T00:22:48.522Z,3.35
2018-12-11T00:23:53.317Z,4.08
2018-12-11T00:24:58.140Z,3.27
2018-12-11T00:26:02.706Z,3.72
2018-12-11T00:27:07.935Z,3.80
2018-12-11T00:28:12.253Z,3.67
2018-12-11T00:29:16.873Z,4.37
2018-12-11T00:30:21.626Z,4.10
2018-12-11T00:31:26.494Z,3.75
2018-12-11T00:32:31.092Z,3.35
2018-12-11T00:33:35.835Z,3.87
2018-12-11T00:34:40.915Z,3.75
2018-12-11T00:35:45.536Z,4.03
2018-12-11T00:36:50.236Z,3.77
2018-12-11T00:37:55.332Z,3.58
2018-12-11T00:38:59.905Z,3.98
2018-12-11T00:40:05.439Z,3.42
2018-12-11T00:41:09.901Z,4.55
2018-12-11T00:42:14.581Z,3.37
2018-12-11T00:43:19.100Z,3.10
2018-12-11T00:44:23.748Z,2.95
2018-12-11T00:45:28.590Z,3.27
2018-12-11T00:46:34.100Z,2.92
2018-12-11T00:47:38.963Z,3.72
2018-12-11T00:48:44.048Z,3.20
2018-12-11T00:49:48.469Z,3.50
2018-12-11T00:50:53.218Z,3.20
2018-12-11T00:51:58.000Z,3.72
2018-12-11T00:53:02.864Z,2.98
2018-12-11T00:54:07.859Z,3.50
2018-12-11T00:55:12.519Z,2.52
2018-12-11T00:56:17.959Z,2.83
2018-12-11T00:57:23.209Z,2.52
2018-12-11T00:58:28.068Z,3.58
2018-12-11T00:59:33.011Z,3.65
2018-12-11T01:00:37.662Z,3.95
2018-12-11T01:01:42.890Z,3.77
2018-12-11T01:02:47.557Z,2.98
2018-12-11T01:03:53.447Z,3.60
2018-12-11T01:04:58.117Z,3.37
2018-12-11T01:06:03.726Z,3.80
2018-12-11T01:07:09.458Z,2.30
2018-12-11T01:08:13.916Z,3.58
2018-12-11T01:09:18.689Z,2.65
2018-12-11T01:10:23.095Z,2.75
2018-12-11T01:11:28.062Z,3.47
2018-12-11T01:12:33.165Z,3.55
2018-12-11T01:13:37.934Z,2.65
2018-12-11T01:14:42.729Z,2.87
2018-12-11T01:15:47.826Z,3.10
2018-12-11T01:16:52.426Z,3.37
2018-12-11T01:17:57.208Z,3.08
2018-12-11T01:19:02.009Z,2.70
2018-12-11T01:20:07.804Z,2.52
2018-12-11T01:21:12.430Z,2.85
2018-12-11T01:22:18.144Z,3.08
2018-12-11T01:23:23.267Z,2.65
2018-12-11T01:24:27.824Z,2.70
2018-12-11T01:25:32.673Z,2.33
2018-12-11T01:26:37.522Z,2.70
2018-12-11T01:27:42.164Z,2.80
2018-12-11T01:28:46.878Z,3.00
2018-12-11T01:29:51.531Z,2.85
2018-12-11T01:30:56.301Z,3.52
2018-12-11T01:32:01.077Z,2.92
2018-12-11T01:33:05.556Z,2.95
2018-12-11T01:34:11.012Z,3.10
2018-12-11T01:35:15.912Z,3.02
2018-12-11T01:36:20.394Z,3.90
2018-12-11T01:37:25.081Z,2.60
2018-12-11T01:38:29.794Z,3.30
2018-12-11T01:39:34.693Z,2.95
2018-12-11T01:40:38.949Z,2.62
2018-12-11T01:41:43.539Z,2.37
2018-12-11T01:42:48.390Z,2.90
2018-12-11T01:43:52.913Z,2.60
2018-12-11T01:44:57.771Z,3.72
2018-12-11T01:46:02.202Z,3.45
2018-12-11T01:47:06.772Z,4.03
2018-12-11T01:48:11.466Z,3.17
2018-12-11T01:49:16.170Z,2.80
2018-12-11T01:50:20.910Z,2.65
2018-12-11T01:51:25.735Z,3.10
2018-12-11T01:52:30.389Z,3.17
2018-12-11T01:53:35.059Z,2.98
2018-12-11T01:54:39.610Z,3.35
2018-12-11T01:55:44.828Z,2.67
2018-12-11T01:56:49.432Z,3.20
2018-12-11T01:57:55.812Z,2.52
2018-12-11T01:59:01.581Z,3.20
2018-12-11T02:00:08.728Z,2.85
2018-12-11T02:01:15.500Z,3.10
2018-12-11T02:02:20.111Z,3.05
2018-12-11T02:03:25.291Z,3.37
2018-12-11T02:04:30.687Z,3.75
2018-12-11T02:05:35.286Z,3.00
2018-12-11T02:06:40.216Z,3.15
2018-12-11T02:07:44.796Z,3.05
2018-12-11T02:08:51.891Z,3.45
2018-12-11T02:09:56.827Z,2.50
2018-12-11T02:11:01.416Z,3.75
2018-12-11T02:12:06.135Z,3.22
2018-12-11T02:13:10.622Z,2.50
2018-12-11T02:14:15.325Z,3.17
2018-12-11T02:15:20.400Z,2.90
2018-12-11T02:16:25.365Z,2.42
2018-12-11T02:17:30.046Z,2.15
2018-12-11T02:18:34.935Z,3.00
2018-12-11T02:19:39.555Z,3.30
2018-12-11T02:20:45.085Z,3.08
2018-12-11T02:21:49.534Z,2.60
2018-12-11T02:22:54.424Z,2.92
2018-12-11T02:23:59.032Z,3.20
2018-12-11T02:25:03.805Z,2.62
2018-12-11T02:26:08.876Z,1.95
2018-12-11T02:27:13.507Z,3.10
2018-12-11T02:28:18.199Z,1.72
2018-12-11T02:29:22.870Z,2.40
2018-12-11T02:30:27.965Z,2.25
2018-12-11T02:31:32.733Z,2.87
2018-12-11T02:32:37.425Z,2.70
2018-12-11T02:33:41.958Z,1.90
2018-12-11T02:34:46.694Z,2.65
2018-12-11T02:35:52.185Z,2.77
2018-12-11T02:36:56.705Z,2.80
2018-12-11T02:38:01.145Z,2.98
2018-12-11T02:39:07.212Z,2.20
2018-12-11T02:40:11.564Z,2.35
2018-12-11T02:41:16.470Z,2.50
2018-12-11T02:42:21.143Z,2.42
2018-12-11T02:43:26.051Z,2.30
2018-12-11T02:44:30.991Z,1.95
2018-12-11T02:45:35.610Z,2.90
2018-12-11T02:46:40.460Z,2.22
2018-12-11T02:47:46.024Z,2.35
2018-12-11T02:48:50.409Z,3.05
2018-12-11T02:49:55.323Z,2.85
2018-12-11T02:50:59.790Z,2.58
2018-12-11T02:52:04.723Z,2.37
2018-12-11T02:53:09.904Z,2.37
2018-12-11T02:54:14.450Z,1.95
2018-12-11T02:55:19.554Z,2.60
2018-12-11T02:56:24.566Z,2.42
2018-12-11T02:57:28.911Z,2.40
2018-12-11T02:58:33.872Z,3.12
2018-12-11T02:59:38.835Z,2.40
2018-12-11T03:00:43.912Z,2.10
2018-12-11T03:01:48.834Z,2.83
2018-12-11T03:02:53.515Z,2.77
2018-12-11T03:03:58.741Z,2.37
2018-12-11T03:05:03.861Z,2.10
2018-12-11T03:06:08.895Z,2.10
2018-12-11T03:07:14.031Z,2.25
2018-12-11T03:08:19.346Z,2.20
2018-12-11T03:09:24.277Z,1.75
2018-12-11T03:10:29.628Z,1.95
2018-12-11T03:11:34.230Z,2.10
2018-12-11T03:12:39.018Z,1.82
2018-12-11T03:13:43.917Z,2.72
2018-12-11T03:14:48.448Z,2.80
2018-12-11T03:15:53.167Z,1.32
2018-12-11T03:16:58.293Z,2.67
2018-12-11T03:18:03.356Z,2.37
2018-12-11T03:19:08.034Z,2.47
2018-12-11T03:20:12.879Z,2.27
2018-12-11T03:21:17.522Z,2.10
2018-12-11T03:22:22.448Z,2.20
2018-12-11T03:23:27.020Z,2.60
2018-12-11T03:24:31.733Z,1.98
2018-12-11T03:25:36.812Z,1.70
2018-12-11T03:26:41.781Z,2.50
2018-12-11T03:27:46.447Z,2.40
2018-12-11T03:28:51.157Z,1.98
2018-12-11T03:29:55.993Z,2.33
2018-12-11T03:31:00.954Z,2.40
2018-12-11T03:32:06.093Z,2.05
2018-12-11T03:33:11.108Z,2.52
2018-12-11T03:34:15.638Z,2.40
2018-12-11T03:35:20.091Z,1.70
2018-12-11T03:36:24.565Z,1.92
2018-12-11T03:37:28.837Z,2.58
2018-12-11T03:38:33.745Z,2.05
2018-12-11T03:39:39.663Z,2.40
2018-12-11T03:40:44.186Z,2.40
2018-12-11T03:41:49.285Z,2.22
2018-12-11T03:42:54.063Z,2.10
2018-12-11T03:43:58.912Z,1.67
2018-12-11T03:45:03.811Z,2.10
2018-12-11T03:46:09.461Z,2.20
2018-12-11T03:47:14.395Z,3.95
2018-12-11T03:48:19.139Z,1.50
2018-12-11T03:49:23.767Z,1.27
2018-12-11T03:50:28.556Z,1.47
2018-12-11T03:51:33.196Z,2.65
2018-12-11T03:52:38.179Z,1.95
2018-12-11T03:53:43.039Z,1.90
2018-12-11T03:54:47.813Z,2.05
2018-12-11T03:55:52.607Z,0.98
2018-12-11T03:56:57.443Z,1.45
2018-12-11T03:58:02.088Z,1.90
2018-12-11T03:59:07.109Z,1.75
2018-12-11T04:00:11.784Z,1.95
2018-12-11T04:01:17.517Z,2.10
2018-12-11T04:02:22.448Z,1.65
2018-12-11T04:03:27.517Z,1.80
2018-12-11T04:04:32.382Z,1.87
2018-12-11T04:05:37.104Z,1.75
2018-12-11T04:06:41.960Z,1.87
2018-12-11T04:07:46.666Z,1.90
2018-12-11T04:08:51.547Z,2.08
2018-12-11T04:09:57.151Z,1.90
2018-12-11T04:11:01.973Z,1.50
2018-12-11T04:12:06.607Z,1.50
2018-12-11T04:13:11.453Z,1.70
2018-12-11T04:14:16.230Z,1.70
2018-12-11T04:15:21.297Z,1.60
2018-12-11T04:16:26.247Z,1.65
2018-12-11T04:17:31.085Z,2.45
2018-12-11T04:18:35.622Z,2.20
2018-12-11T04:19:41.227Z,1.95
2018-12-11T04:20:46.245Z,2.02
2018-12-11T04:21:50.933Z,1.52
2018-12-11T04:22:55.654Z,2.17
2018-12-11T04:24:00.343Z,1.60
2018-12-11T04:25:07.307Z,1.27
2018-12-11T04:26:12.162Z,2.45
2018-12-11T04:27:16.991Z,1.70
2018-12-11T04:28:21.838Z,1.70
2018-12-11T04:29:26.848Z,1.05
2018-12-11T04:30:31.549Z,1.90
2018-12-11T04:31:36.089Z,1.20
2018-12-11T04:32:40.526Z,1.47
2018-12-11T04:33:45.322Z,1.30
2018-12-11T04:34:50.279Z,2.00
2018-12-11T04:35:55.063Z,1.50
2018-12-11T04:36:59.775Z,2.00
2018-12-11T04:38:04.814Z,1.60
2018-12-11T04:39:09.926Z,1.65
2018-12-11T04:40:14.686Z,2.10
2018-12-11T04:41:19.236Z,1.75
2018-12-11T04:42:24.212Z,1.67
2018-12-11T04:43:29.670Z,2.02
2018-12-11T04:44:34.790Z,1.67
2018-12-11T04:45:39.590Z,2.30
2018-12-11T04:46:44.280Z,1.65
2018-12-11T04:47:49.367Z,1.57
2018-12-11T04:48:54.060Z,1.98
2018-12-11T04:49:58.547Z,1.52
2018-12-11T04:51:03.228Z,1.75
2018-12-11T04:52:07.911Z,1.92
2018-12-11T04:53:12.823Z,2.22
2018-12-11T04:54:17.698Z,1.55
2018-12-11T04:55:22.406Z,1.60
2018-12-11T04:56:28.061Z,2.10
2018-12-11T04:57:33.220Z,2.05
2018-12-11T04:58:38.137Z,1.82
2018-12-11T04:59:43.094Z,1.85
2018-12-11T05:00:48.057Z,1.25
2018-12-11T05:01:52.751Z,1.55
2018-12-11T05:02:57.581Z,2.15
2018-12-11T05:04:02.560Z,1.65
2018-12-11T05:05:07.444Z,2.10
2018-12-11T05:06:12.027Z,2.08
2018-12-11T05:07:16.495Z,2.15
2018-12-11T05:08:22.527Z,2.10
2018-12-11T05:09:28.134Z,1.90
2018-12-11T05:10:32.783Z,1.60
2018-12-11T05:11:37.807Z,1.85
2018-12-11T05:12:42.377Z,2.37
2018-12-11T05:13:47.120Z,1.70
2018-12-11T05:14:51.829Z,1.65
2018-12-11T05:15:56.684Z,2.20
2018-12-11T05:17:01.605Z,1.92
2018-12-11T05:18:06.444Z,1.70
2018-12-11T05:19:11.343Z,2.70
2018-12-11T05:20:15.853Z,1.80
2018-12-11T05:21:20.444Z,1.72
2018-12-11T05:22:24.802Z,2.40
2018-12-11T05:23:30.239Z,1.85
2018-12-11T05:24:36.047Z,1.90
2018-12-11T05:25:40.382Z,1.80
2018-12-11T05:26:44.994Z,1.65
2018-12-11T05:27:49.902Z,2.33
2018-12-11T05:28:55.373Z,2.65
2018-12-11T05:30:02.456Z,2.30
2018-12-11T05:31:07.469Z,1.90
2018-12-11T05:32:12.101Z,1.82
2018-12-11T05:33:16.951Z,1.90
2018-12-11T05:34:21.651Z,2.05
2018-12-11T05:35:27.336Z,4.90
2018-12-11T05:36:32.062Z,2.80
2018-12-11T05:37:36.813Z,2.30
2018-12-11T05:38:41.413Z,2.27
2018-12-11T05:39:46.149Z,1.62
2018-12-11T05:40:50.786Z,2.33
2018-12-11T05:41:55.696Z,1.67
2018-12-11T05:43:00.911Z,1.92
2018-12-11T05:44:05.647Z,1.80
2018-12-11T05:45:10.699Z,2.10
2018-12-11T05:46:15.619Z,1.60
2018-12-11T05:47:20.354Z,1.82
2018-12-11T05:48:26.177Z,1.60
2018-12-11T05:49:31.568Z,1.50
2018-12-11T05:50:36.502Z,1.80
2018-12-11T05:51:41.279Z,2.42
2018-12-11T05:52:45.846Z,1.87
2018-12-11T05:53:50.741Z,1.87
2018-12-11T05:54:55.223Z,2.08
2018-12-11T05:55:59.852Z,1.80
2018-12-11T05:57:04.691Z,1.75
2018-12-11T05:58:09.185Z,1.62
2018-12-11T05:59:13.935Z,1.40
2018-12-11T06:00:18.751Z,1.52
2018-12-11T06:01:23.832Z,2.25
2018-12-11T06:02:28.871Z,2.62
2018-12-11T06:03:33.969Z,2.27
2018-12-11T06:04:38.545Z,1.77
2018-12-11T06:05:43.309Z,1.85
2018-12-11T06:06:48.151Z,2.42
2018-12-11T06:07:52.708Z,1.80
2018-12-11T06:08:57.174Z,1.30
2018-12-11T06:10:01.659Z,2.02
2018-12-11T06:11:07.058Z,1.60
2018-12-11T06:12:12.258Z,2.25
2018-12-11T06:13:17.115Z,1.75
2018-12-11T06:14:22.116Z,1.98
2018-12-11T06:15:26.821Z,1.75
2018-12-11T06:16:31.698Z,1.87
2018-12-11T06:17:36.800Z,2.62
2018-12-11T06:18:42.272Z,2.50
2018-12-11T06:19:47.204Z,1.75
2018-12-11T06:20:52.426Z,2.30
2018-12-11T06:21:56.942Z,2.08
2018-12-11T06:23:01.556Z,1.70
2018-12-11T06:24:06.272Z,2.52
2018-12-11T06:25:11.374Z,1.95
2018-12-11T06:26:15.932Z,2.12
2018-12-11T06:27:21.021Z,1.70
2018-12-11T06:28:26.816Z,1.80
2018-12-11T06:29:31.488Z,1.98
2018-12-11T06:30:36.069Z,2.10
2018-12-11T06:31:40.577Z,2.58
2018-12-11T06:32:45.129Z,1.85
2018-12-11T06:33:50.123Z,2.05
2018-12-11T06:34:55.254Z,2.17
2018-12-11T06:36:00.554Z,2.22
2018-12-11T06:37:06.072Z,1.80
2018-12-11T06:38:11.016Z,1.80
2018-12-11T06:39:16.122Z,2.12
2018-12-11T06:40:21.023Z,3.08
2018-12-11T06:41:25.623Z,2.52
2018-12-11T06:42:30.529Z,2.22
2018-12-11T06:43:35.283Z,1.45
2018-12-11T06:44:40.079Z,2.10
2018-12-11T06:45:44.947Z,1.50
2018-12-11T06:46:50.319Z,1.85
2018-12-11T06:47:55.404Z,2.30
2018-12-11T06:49:00.923Z,1.82
2018-12-11T06:50:07.030Z,1.60
2018-12-11T06:51:11.614Z,1.95
2018-12-11T06:52:16.506Z,2.52
2018-12-11T06:53:21.537Z,2.77
2018-12-11T06:54:26.585Z,1.47
2018-12-11T06:55:31.237Z,1.75
2018-12-11T06:56:36.869Z,2.10
2018-12-11T06:57:43.633Z,1.37
2018-12-11T06:58:48.592Z,1.87
2018-12-11T06:59:53.739Z,1.70
2018-12-11T07:00:58.315Z,1.70
2018-12-11T07:02:03.323Z,2.00
2018-12-11T07:03:08.133Z,1.90
2018-12-11T07:04:13.044Z,1.75
2018-12-11T07:05:19.151Z,2.20
2018-12-11T07:06:23.900Z,1.95
2018-12-11T07:07:28.792Z,2.37
2018-12-11T07:08:33.699Z,1.90
2018-12-11T07:09:38.313Z,1.75
2018-12-11T07:10:43.266Z,1.52
2018-12-11T07:11:48.073Z,1.35
2018-12-11T07:12:52.944Z,1.87
2018-12-11T07:13:57.775Z,1.32
2018-12-11T07:15:02.586Z,2.00
2018-12-11T07:16:07.605Z,1.98
2018-12-11T07:17:12.615Z,1.52
2018-12-11T07:18:18.024Z,2.40
2018-12-11T07:19:23.060Z,2.20
2018-12-11T07:20:28.287Z,1.37
2018-12-11T07:21:32.987Z,1.87
2018-12-11T07:22:37.834Z,1.85
2018-12-11T07:23:43.479Z,2.08
2018-12-11T07:24:48.254Z,2.42
2018-12-11T07:25:53.228Z,1.82
2018-12-11T07:26:57.978Z,2.37
2018-12-11T07:28:03.844Z,1.35
2018-12-11T07:29:08.822Z,2.83
2018-12-11T07:30:13.983Z,1.87
2018-12-11T07:31:18.678Z,1.75
2018-12-11T07:32:24.551Z,2.30
2018-12-11T07:33:30.768Z,2.40
2018-12-11T07:34:35.511Z,1.50
2018-12-11T07:35:40.241Z,1.90
2018-12-11T07:36:44.949Z,2.40
2018-12-11T07:37:49.839Z,2.45
2018-12-11T07:38:55.074Z,1.95
2018-12-11T07:39:59.936Z,1.57
2018-12-11T07:41:04.778Z,2.33
2018-12-11T07:42:09.685Z,1.72
2018-12-11T07:43:14.736Z,1.92
2018-12-11T07:44:19.486Z,1.50
2018-12-11T07:45:24.023Z,1.72
2018-12-11T07:46:28.792Z,1.92
2018-12-11T07:47:33.603Z,1.42
2018-12-11T07:48:38.432Z,1.40
2018-12-11T07:49:43.166Z,1.62
2018-12-11T07:50:47.780Z,1.65
2018-12-11T07:51:53.480Z,1.77
2018-12-11T07:52:58.464Z,2.02
2018-12-11T07:54:03.195Z,1.90
2018-12-11T07:55:08.682Z,2.10
2018-12-11T07:56:13.631Z,1.98
2018-12-11T07:57:18.564Z,2.10
2018-12-11T07:58:23.237Z,2.33
2018-12-11T07:59:27.952Z,1.80
2018-12-11T08:00:33.276Z,2.20
2018-12-11T08:01:38.127Z,1.72
2018-12-11T08:02:43.199Z,2.25
2018-12-11T08:03:48.042Z,1.95
2018-12-11T08:04:53.217Z,2.15
2018-12-11T08:05:57.907Z,1.70
2018-12-11T08:07:02.867Z,3.00
2018-12-11T08:08:09.832Z,2.62
2018-12-11T08:09:14.206Z,2.40
2018-12-11T08:10:19.015Z,2.70
2018-12-11T08:11:24.945Z,2.17
2018-12-11T08:12:30.021Z,2.22
2018-12-11T08:13:34.661Z,2.72
2018-12-11T08:14:39.720Z,2.00
2018-12-11T08:15:44.186Z,3.15
2018-12-11T08:16:49.004Z,2.10
2018-12-11T08:17:53.753Z,1.72
2018-12-11T08:18:59.392Z,1.75
2018-12-11T08:20:04.256Z,1.70
2018-12-11T08:21:09.199Z,1.75
2018-12-11T08:22:13.902Z,1.72
2018-12-11T08:23:18.578Z,2.30
2018-12-11T08:24:23.309Z,2.85
2018-12-11T08:25:29.296Z,2.00
2018-12-11T08:26:34.016Z,2.10
2018-12-11T08:27:39.238Z,1.80
2018-12-11T08:28:44.477Z,2.60
2018-12-11T08:29:49.365Z,2.20
2018-12-11T08:30:54.446Z,2.05
2018-12-11T08:32:00.360Z,2.60
2018-12-11T08:34:35.405Z,1.70
2018-12-11T08:35:40.777Z,2.45
2018-12-11T08:36:46.365Z,3.27
2018-12-11T08:37:51.028Z,3.20
2018-12-11T08:38:56.162Z,2.70
2018-12-11T08:40:01.088Z,2.40
2018-12-11T08:41:07.379Z,2.60
2018-12-11T08:42:12.707Z,2.42
2018-12-11T08:43:18.305Z,2.00
2018-12-11T08:44:22.954Z,2.52
2018-12-11T08:45:27.920Z,2.02
2018-12-11T08:46:32.533Z,2.83
2018-12-11T08:47:37.645Z,2.22
2018-12-11T08:48:42.778Z,1.95
2018-12-11T08:49:47.614Z,1.90
2018-12-11T08:50:52.423Z,2.62
2018-12-11T08:51:56.943Z,2.40
2018-12-11T08:53:02.126Z,2.20
2018-12-11T08:54:06.999Z,2.47
2018-12-11T08:55:12.438Z,2.25
2018-12-11T08:56:17.130Z,2.08
2018-12-11T08:57:21.964Z,2.30
2018-12-11T08:58:27.619Z,1.90
2018-12-11T08:59:32.509Z,2.02
2018-12-11T09:00:37.143Z,2.00
2018-12-11T09:01:41.859Z,2.52
2018-12-11T09:02:48.725Z,1.82
2018-12-11T09:03:53.219Z,2.50
2018-12-11T09:04:58.222Z,2.72
2018-12-11T09:06:04.580Z,3.02
2018-12-11T09:07:09.506Z,2.45
2018-12-11T09:08:14.347Z,2.52
2018-12-11T09:09:19.026Z,2.20
2018-12-11T09:10:24.384Z,2.33
2018-12-11T09:11:29.363Z,3.90
2018-12-11T09:12:34.057Z,3.40
2018-12-11T09:13:39.900Z,1.87
2018-12-11T09:14:44.852Z,2.67
2018-12-11T09:15:49.647Z,2.58
2018-12-11T09:16:54.264Z,2.98
2018-12-11T09:17:59.176Z,2.33
2018-12-11T09:19:03.906Z,3.45
2018-12-11T09:20:08.687Z,2.50
2018-12-11T09:21:13.542Z,2.60
2018-12-11T09:22:18.740Z,2.17
2018-12-11T09:23:23.441Z,2.27
2018-12-11T09:24:28.162Z,2.20
2018-12-11T09:25:32.847Z,2.42
2018-12-11T09:26:37.637Z,2.30
2018-12-11T09:27:42.948Z,3.10
2018-12-11T09:28:48.112Z,2.33
2018-12-11T09:29:54.945Z,1.72
2018-12-11T09:30:59.879Z,2.70
2018-12-11T09:32:04.805Z,2.50
2018-12-11T09:33:09.753Z,2.12
2018-12-11T09:34:14.345Z,2.45
2018-12-11T09:35:19.531Z,1.90
2018-12-11T09:36:24.459Z,2.87
2018-12-11T09:37:29.406Z,2.25
2018-12-11T09:38:34.968Z,2.37
2018-12-11T09:39:39.747Z,4.55
2018-12-11T09:40:44.703Z,2.25
2018-12-11T09:41:49.745Z,2.00
2018-12-11T09:42:54.448Z,2.90
2018-12-11T09:43:59.448Z,2.20
2018-12-11T09:45:06.028Z,2.37
2018-12-11T09:46:12.242Z,3.15
2018-12-11T09:47:17.274Z,1.80
2018-12-11T09:48:21.966Z,2.58
2018-12-11T09:49:26.904Z,2.08
2018-12-11T09:50:31.485Z,2.40
2018-12-11T09:51:37.126Z,2.02
2018-12-11T09:52:41.975Z,3.67
2018-12-11T09:53:48.479Z,2.70
2018-12-11T09:54:54.319Z,2.62
2018-12-11T09:55:59.066Z,2.15
2018-12-11T09:57:04.226Z,2.55
2018-12-11T09:58:09.052Z,2.95
2018-12-11T09:59:13.927Z,2.27
2018-12-11T10:00:25.737Z,1.90
2018-12-11T10:01:26.248Z,2.20
2018-12-11T10:02:31.262Z,2.20
2018-12-11T10:03:36.014Z,2.27
2018-12-11T10:04:41.442Z,2.55
2018-12-11T10:05:47.082Z,2.50
2018-12-11T10:06:52.350Z,2.35
2018-12-11T10:07:57.031Z,2.85
2018-12-11T10:09:01.990Z,1.55
2018-12-11T10:10:08.856Z,2.42
2018-12-11T10:11:15.006Z,3.25
2018-12-11T10:12:19.830Z,2.60
2018-12-11T10:13:24.758Z,2.40
2018-12-11T10:14:29.678Z,2.15
2018-12-11T10:15:34.563Z,2.05
2018-12-11T10:16:39.670Z,1.90
2018-12-11T10:17:44.311Z,2.10
2018-12-11T10:18:48.927Z,2.22
2018-12-11T10:19:53.653Z,1.60
2018-12-11T10:20:58.893Z,2.10
2018-12-11T10:22:03.871Z,1.95
2018-12-11T10:23:08.806Z,2.10
2018-12-11T10:24:13.760Z,2.20
2018-12-11T10:25:19.117Z,2.10
2018-12-11T10:26:25.115Z,2.00
2018-12-11T10:27:30.195Z,2.22
2018-12-11T10:28:35.106Z,3.62
2018-12-11T10:29:39.894Z,2.10
2018-12-11T10:30:48.896Z,2.10
2018-12-11T10:31:53.806Z,2.20
2018-12-11T10:32:58.751Z,2.65
2018-12-11T10:34:03.977Z,2.77
2018-12-11T10:35:09.023Z,2.37
2018-12-11T10:36:13.735Z,2.05
2018-12-11T10:37:18.785Z,2.62
2018-12-11T10:38:23.623Z,2.50
2018-12-11T10:39:28.518Z,2.65
2018-12-11T10:40:33.204Z,1.92
2018-12-11T10:41:37.552Z,3.30
2018-12-11T10:42:42.433Z,1.90
2018-12-11T10:43:47.024Z,2.00
2018-12-11T10:44:51.849Z,2.37
2018-12-11T10:45:56.999Z,2.20
2018-12-11T10:47:01.879Z,2.10
2018-12-11T10:48:06.663Z,1.92
2018-12-11T10:49:12.411Z,2.45
2018-12-11T10:50:17.365Z,1.70
2018-12-11T10:51:22.984Z,2.25
2018-12-11T10:52:27.894Z,2.15
2018-12-11T10:53:32.770Z,2.90
2018-12-11T10:54:38.254Z,1.75
2018-12-11T10:55:43.184Z,2.70
2018-12-11T10:56:48.672Z,1.85
2018-12-11T10:57:53.437Z,2.17
2018-12-11T10:58:58.365Z,2.47
2018-12-11T11:00:03.196Z,2.30
2018-12-11T11:01:15.194Z,2.20
2018-12-11T11:02:24.145Z,2.60
2018-12-11T11:03:30.444Z,2.85
2018-12-11T11:04:36.045Z,2.55
2018-12-11T11:05:41.215Z,2.50
2018-12-11T11:06:46.131Z,2.45
2018-12-11T11:07:51.172Z,2.62
2018-12-11T11:08:56.140Z,2.52
2018-12-11T11:10:00.480Z,2.20
2018-12-11T11:11:05.460Z,2.25
2018-12-11T11:12:11.201Z,2.75
2018-12-11T11:13:16.187Z,2.47
2018-12-11T11:14:21.262Z,3.08
2018-12-11T11:15:25.925Z,2.65
2018-12-11T11:16:30.766Z,3.22
2018-12-11T11:17:35.764Z,2.27
2018-12-11T11:18:40.392Z,2.10
2018-12-11T11:19:45.571Z,2.40
2018-12-11T11:20:50.412Z,2.40
2018-12-11T11:21:55.379Z,2.45
2018-12-11T11:23:03.481Z,2.37
2018-12-11T11:24:09.577Z,2.55
2018-12-11T11:25:14.502Z,2.02
2018-12-11T11:26:19.648Z,2.87
2018-12-11T11:27:24.800Z,2.35
2018-12-11T11:28:29.875Z,2.35
2018-12-11T11:29:34.544Z,1.98
2018-12-11T11:30:51.251Z,2.00
2018-12-11T11:31:55.951Z,2.10
2018-12-11T11:33:00.935Z,3.05
2018-12-11T11:34:05.726Z,2.40
2018-12-11T11:35:10.300Z,1.90
2018-12-11T11:36:15.199Z,2.55
2018-12-11T11:37:19.632Z,2.60
2018-12-11T11:38:24.891Z,2.30
2018-12-11T11:39:30.155Z,2.40
2018-12-11T11:40:35.112Z,2.90
2018-12-11T11:41:40.644Z,3.00
2018-12-11T11:42:45.734Z,2.83
2018-12-11T11:43:50.924Z,2.50
2018-12-11T11:44:57.152Z,2.45
2018-12-11T11:46:01.835Z,2.52
2018-12-11T11:47:07.411Z,3.15
2018-12-11T11:48:12.009Z,2.52
2018-12-11T11:49:16.823Z,2.15
2018-12-11T11:50:21.734Z,2.50
2018-12-11T11:51:26.461Z,2.65
2018-12-11T11:52:31.164Z,2.25
2018-12-11T11:53:35.797Z,3.10
2018-12-11T11:54:40.581Z,2.92
2018-12-11T11:55:45.567Z,2.80
2018-12-11T11:56:50.509Z,2.40
2018-12-11T11:57:55.584Z,2.70
2018-12-11T11:59:00.355Z,2.77
2018-12-11T12:00:07.292Z,2.70
2018-12-11T12:01:12.096Z,3.20
2018-12-11T12:02:16.935Z,3.35
2018-12-11T12:03:21.743Z,2.70
2018-12-11T12:04:26.269Z,3.25
2018-12-11T12:05:31.213Z,3.30
2018-12-11T12:06:35.819Z,3.08
2018-12-11T12:07:40.532Z,3.15
2018-12-11T12:08:47.238Z,3.95
2018-12-11T12:09:52.180Z,3.55
2018-12-11T12:10:57.023Z,3.02
2018-12-11T12:12:02.203Z,3.30
2018-12-11T12:13:06.834Z,3.08
2018-12-11T12:14:11.755Z,2.45
2018-12-11T12:15:17.963Z,3.35
2018-12-11T12:16:23.084Z,3.30
2018-12-11T12:17:27.722Z,3.25
2018-12-11T12:18:32.584Z,2.80
2018-12-11T12:19:37.488Z,3.30
2018-12-11T12:20:42.199Z,3.27
2018-12-11T12:21:46.660Z,2.72
2018-12-11T12:22:52.447Z,3.45
2018-12-11T12:23:57.079Z,2.65
2018-12-11T12:25:01.931Z,3.05
2018-12-11T12:26:06.683Z,3.17
2018-12-11T12:27:11.394Z,3.55
2018-12-11T12:28:16.441Z,3.12
2018-12-11T12:29:21.146Z,2.75
2018-12-11T12:30:27.330Z,2.37
2018-12-11T12:31:32.154Z,3.83
2018-12-11T12:32:37.269Z,2.85
2018-12-11T12:33:42.986Z,3.22
2018-12-11T12:34:48.009Z,3.00
2018-12-11T12:35:52.607Z,3.35
2018-12-11T12:36:57.401Z,3.50
2018-12-11T12:38:02.586Z,2.40
2018-12-11T12:39:08.343Z,2.45
2018-12-11T12:40:14.029Z,2.75
2018-12-11T12:41:18.846Z,2.20
2018-12-11T12:42:23.530Z,3.00
2018-12-11T12:43:28.642Z,2.95
2018-12-11T12:44:33.418Z,3.25
2018-12-11T12:45:38.084Z,2.98
2018-12-11T12:46:42.932Z,2.58
2018-12-11T12:47:47.994Z,2.90
2018-12-11T12:48:52.820Z,2.85
2018-12-11T12:49:57.585Z,3.55
2018-12-11T12:51:03.605Z,2.65
2018-12-11T12:52:08.185Z,3.15
2018-12-11T12:53:13.335Z,3.12
2018-12-11T12:54:18.541Z,3.67
2018-12-11T12:55:23.423Z,2.50
2018-12-11T12:56:28.618Z,2.55
2018-12-11T12:57:33.480Z,3.35
2018-12-11T12:58:38.644Z,3.25
2018-12-11T12:59:44.099Z,3.52
2018-12-11T13:00:49.002Z,3.35
2018-12-11T13:01:54.471Z,2.92
2018-12-11T13:03:00.083Z,3.08
2018-12-11T13:04:05.907Z,3.33
2018-12-11T13:05:10.603Z,3.10
2018-12-11T13:06:15.611Z,3.27
2018-12-11T13:07:20.675Z,3.83
2018-12-11T13:08:25.451Z,3.50
2018-12-11T13:09:30.342Z,4.10
2018-12-11T13:10:35.154Z,2.95
2018-12-11T13:11:40.849Z,3.50
2018-12-11T13:12:45.883Z,3.40
2018-12-11T13:13:50.572Z,3.98
2018-12-11T13:14:55.657Z,3.92
2018-12-11T13:16:00.680Z,3.67
2018-12-11T13:17:06.795Z,3.15
2018-12-11T13:18:11.847Z,3.40
2018-12-11T13:19:16.667Z,3.90
2018-12-11T13:20:21.571Z,3.75
2018-12-11T13:21:26.299Z,2.85
2018-12-11T13:22:31.149Z,4.08
2018-12-11T13:23:36.198Z,3.75
2018-12-11T13:24:40.944Z,3.40
2018-12-11T13:25:45.593Z,3.25
2018-12-11T13:26:50.176Z,3.33
2018-12-11T13:27:55.133Z,4.25
2018-12-11T13:29:00.008Z,4.22
2018-12-11T13:30:05.722Z,3.62
2018-12-11T13:31:10.563Z,3.08
2018-12-11T13:32:15.634Z,3.20
2018-12-11T13:33:20.413Z,3.67
2018-12-11T13:34:26.811Z,3.62
2018-12-11T13:35:31.913Z,3.27
2018-12-11T13:36:36.852Z,3.30
2018-12-11T13:37:42.063Z,2.72
2018-12-11T13:38:47.860Z,2.62
2018-12-11T13:39:53.444Z,2.65
2018-12-11T13:40:58.489Z,3.10
2018-12-11T13:42:03.576Z,3.00
2018-12-11T13:43:08.732Z,2.37
2018-12-11T13:44:14.142Z,2.90
2018-12-11T13:45:19.191Z,3.62
2018-12-11T13:46:25.863Z,2.80
2018-12-11T13:47:30.891Z,3.00
2018-12-11T13:48:35.780Z,5.10
2018-12-11T13:49:41.482Z,2.60
2018-12-11T13:50:46.281Z,2.45
2018-12-11T13:51:51.325Z,2.85
2018-12-11T13:52:55.912Z,2.70
2018-12-11T13:54:00.858Z,3.83
2018-12-11T13:55:05.694Z,3.15
2018-12-11T13:56:10.872Z,3.05
2018-12-11T13:57:15.576Z,3.10
2018-12-11T13:58:20.699Z,3.25
2018-12-11T13:59:25.218Z,2.65
2018-12-11T14:00:29.904Z,2.67
2018-12-11T14:01:34.596Z,3.75
2018-12-11T14:02:39.736Z,2.60
2018-12-11T14:03:45.388Z,2.40
2018-12-11T14:04:50.298Z,2.60
2018-12-11T14:05:55.024Z,3.10
2018-12-11T14:06:59.779Z,3.20
2018-12-11T14:08:04.623Z,2.65
2018-12-11T14:10:55.028Z,2.95
2018-12-11T14:12:00.438Z,2.98
2018-12-11T14:13:05.060Z,3.72
2018-12-11T14:14:10.677Z,2.80
2018-12-11T14:15:16.256Z,2.47
2018-12-11T14:16:20.859Z,3.60
2018-12-11T14:17:25.255Z,2.45
2018-12-11T14:18:37.541Z,2.87
2018-12-11T14:19:42.775Z,3.15
2018-12-11T14:20:47.402Z,2.77
2018-12-11T14:21:52.034Z,3.10
2018-12-11T14:22:58.136Z,2.12
2018-12-11T14:24:02.950Z,2.50
2018-12-11T14:25:07.948Z,2.70
2018-12-11T14:26:12.595Z,3.37
2018-12-11T14:27:17.487Z,2.90
2018-12-11T14:28:22.167Z,2.50